メインページ
METAR-TAF:

METAR-TAF

空港 :

Orange Municipal Airport

オランジュ, マサチューセッツ州, アメリカ合衆国

緯度: 42-34-18N, 経度: 072-16-39W, 海抜: 169m

現時点の気象観測

当レポートは21分前の15:52(UTC)に作成
西/南西の風 3kt
気温 -10°C
湿度 48%
気圧 1030 hPa
視程: 16.1km
高度11000ftの曇り

METAR: KORE 181552Z AUTO 25003KT 10SM OVC110 M10/M19 A3043 RMK AO2 SLP318 T11001189

時間: 11:13 (16:13 UTC)


TAF: 見つかりません

4,000以上の空港の気象観測と天気予報(METAR報とTAF報)

利用可能な観測所は地図上に黄色い丸と赤い丸で示す。

丸の上にカーソルを重ねると観測所名を参照できる。

次にクリックすると気象観測と天気予報を参照できる。

マップの切り替え:黒色「×」印の緑ボタンをクリックして拡大、「-」印の緑ボタンをクリックして縮小、緑色の三角印をクリックして隣りの地図に切り替え


METAR-TAF: